Time;durP1;ratioP1;P1;durP2;ratioP2;P2;SDS_P1;SDS_P2;PMS_P1;PMS_P2;Temp;Humidity;BMP_temperature;BMP_pressure;BME280_temperature;BME280_humidity;BME280_pressure;Samples;Min_cycle;Max_cycle;Signal;HPM_P1;HPM_P2
2024/01/04 00:04:05;;;;;;;4.70;2.20;;;;;;;7.47;82.03;96746.16;226332;1268;22541;-76
2024/01/04 00:09:11;;;;;;;4.70;2.30;;;;;;;7.44;82.14;96743.61;226557;1274;22547;-76
2024/01/04 00:14:15;;;;;;;3.10;2.00;;;;;;;7.40;82.15;96741.52;226494;1272;22606;-76
2024/01/04 00:19:17;;;;;;;5.40;2.10;;;;;;;7.39;82.47;96753.45;226360;1274;22741;-75
2024/01/04 00:24:20;;;;;;;4.80;2.10;;;;;;;7.38;82.45;96742.75;226480;1274;22594;-76
2024/01/04 00:29:22;;;;;;;3.80;2.10;;;;;;;7.39;82.58;96736.48;226448;1269;26060;-75
2024/01/04 00:34:25;;;;;;;4.00;2.00;;;;;;;7.40;82.56;96737.67;226515;1272;22551;-76
2024/01/04 00:39:28;;;;;;;3.00;1.90;;;;;;;7.42;82.47;96727.27;226542;1270;22530;-75
2024/01/04 00:44:30;;;;;;;3.70;1.90;;;;;;;7.48;82.42;96733.15;226490;1273;22722;-75
2024/01/04 00:49:32;;;;;;;5.10;2.50;;;;;;;7.53;82.32;96729.05;226521;1273;22863;-75
2024/01/04 00:54:34;;;;;;;3.50;1.70;;;;;;;7.58;82.09;96730.76;226444;1274;23976;-75
2024/01/04 00:59:36;;;;;;;5.30;1.80;;;;;;;7.60;82.03;96723.09;226208;1274;22566;-76
2024/01/04 01:04:38;;;;;;;3.60;1.70;;;;;;;7.63;81.72;96729.17;226516;1274;22583;-77
2024/01/04 01:09:41;;;;;;;4.30;2.10;;;;;;;7.62;81.64;96724.90;226465;1272;24349;-76
2024/01/04 01:14:43;;;;;;;4.30;1.80;;;;;;;7.63;81.39;96719.47;226513;1273;22536;-77
2024/01/04 01:19:45;;;;;;;3.30;1.30;;;;;;;7.66;81.59;96717.90;226461;1274;23057;-76
2024/01/04 01:24:47;;;;;;;3.00;1.40;;;;;;;7.71;81.33;96710.48;226440;1274;22634;-77
2024/01/04 01:29:50;;;;;;;2.30;1.40;;;;;;;7.74;81.48;96713.14;226607;1267;22557;-77
2024/01/04 01:34:54;;;;;;;2.10;1.20;;;;;;;7.72;81.49;96708.08;226402;1274;23096;-77
2024/01/04 01:39:56;;;;;;;2.60;1.10;;;;;;;7.71;81.48;96703.45;226568;1251;22564;-77
2024/01/04 01:45:00;;;;;;;2.90;1.30;;;;;;;7.73;81.51;96705.00;226371;1273;22653;-76
2024/01/04 01:50:02;;;;;;;3.00;1.70;;;;;;;7.74;81.77;96698.95;226462;1251;24301;-76
2024/01/04 01:55:07;;;;;;;2.30;1.30;;;;;;;7.76;81.87;96693.59;226448;1273;22695;-77
2024/01/04 02:00:10;;;;;;;2.30;1.00;;;;;;;7.78;82.08;96693.73;226426;1274;22579;-77
2024/01/04 02:05:16;;;;;;;3.10;0.90;;;;;;;7.77;81.73;96698.07;226574;1272;22556;-77
2024/01/04 02:10:18;;;;;;;1.30;0.90;;;;;;;7.72;82.11;96698.70;226373;1274;22556;-77
2024/01/04 02:15:20;;;;;;;1.80;1.00;;;;;;;7.66;82.43;96696.11;226601;1269;25469;-76
2024/01/04 02:20:22;;;;;;;2.40;0.90;;;;;;;7.60;82.78;96695.92;226461;1273;22618;-77
2024/01/04 02:25:25;;;;;;;2.00;0.90;;;;;;;7.53;83.77;96699.05;226389;1274;23429;-76
2024/01/04 02:30:27;;;;;;;2.30;0.90;;;;;;;7.39;84.46;96700.70;226524;1269;24241;-75
2024/01/04 02:35:29;;;;;;;1.30;0.80;;;;;;;7.26;84.71;96695.59;226384;1274;23020;-76
2024/01/04 02:40:34;;;;;;;1.70;0.90;;;;;;;7.17;84.65;96678.76;226373;1274;24956;-76
2024/01/04 02:45:36;;;;;;;2.00;1.00;;;;;;;7.10;84.88;96677.10;226483;1272;22557;-76
2024/01/04 02:50:38;;;;;;;1.90;1.10;;;;;;;7.04;85.30;96670.20;226377;1274;25488;-76
2024/01/04 02:55:41;;;;;;;3.00;1.50;;;;;;;6.99;85.39;96661.65;226545;1270;22543;-76
2024/01/04 03:00:43;;;;;;;2.70;1.50;;;;;;;6.94;85.45;96655.12;226401;1274;22540;-77
2024/01/04 03:05:46;;;;;;;3.00;1.30;;;;;;;6.89;86.14;96650.12;226395;1273;22535;-76
2024/01/04 03:10:48;;;;;;;2.30;1.40;;;;;;;6.87;86.06;96647.67;226154;1274;22605;-76
2024/01/04 03:15:51;;;;;;;3.90;1.80;;;;;;;6.85;86.36;96649.98;226388;1270;24278;-77
2024/01/04 03:20:53;;;;;;;3.70;1.70;;;;;;;6.85;86.56;96645.99;226309;1268;22523;-76
2024/01/04 03:25:55;;;;;;;1.90;1.40;;;;;;;6.84;86.62;96642.48;226406;1272;22563;-76
2024/01/04 03:30:57;;;;;;;2.10;1.40;;;;;;;6.85;86.81;96640.54;226438;1269;22559;-75
2024/01/04 03:35:59;;;;;;;2.20;1.40;;;;;;;6.87;86.86;96639.15;226289;1274;25281;-76
2024/01/04 03:41:02;;;;;;;3.70;1.40;;;;;;;6.89;86.89;96645.71;226592;1266;22570;-77
2024/01/04 03:46:06;;;;;;;1.80;1.20;;;;;;;6.90;86.80;96646.52;226427;1269;22549;-76
2024/01/04 03:51:10;;;;;;;3.00;1.20;;;;;;;6.90;86.81;96648.13;226290;1274;22571;-76
2024/01/04 03:56:12;;;;;;;2.60;1.00;;;;;;;6.87;86.73;96647.99;226432;1269;22588;-76
2024/01/04 04:01:14;;;;;;;2.20;1.20;;;;;;;6.85;87.33;96650.84;226334;1274;22643;-77
2024/01/04 04:06:20;;;;;;;1.80;0.90;;;;;;;6.84;86.95;96652.52;226261;1274;22604;-76
2024/01/04 04:11:23;;;;;;;2.40;1.20;;;;;;;6.85;87.07;96655.59;226393;1274;25246;-76
2024/01/04 04:16:25;;;;;;;1.40;1.10;;;;;;;6.86;86.95;96651.43;226352;1274;22539;-75
2024/01/04 04:21:27;;;;;;;1.60;0.80;;;;;;;6.86;87.36;96655.99;226389;1272;22602;-75
2024/01/04 04:26:29;;;;;;;2.30;1.10;;;;;;;6.84;87.30;96666.23;226476;1273;22536;-75
2024/01/04 04:31:31;;;;;;;1.00;0.50;;;;;;;6.85;86.99;96682.65;226434;1274;22534;-74
2024/01/04 04:36:33;;;;;;;1.20;0.50;;;;;;;6.88;87.19;96686.95;226487;1272;22679;-75
2024/01/04 04:41:38;;;;;;;0.40;0.30;;;;;;;6.92;87.09;96694.03;226382;1274;22575;-76
2024/01/04 04:46:40;;;;;;;1.00;0.20;;;;;;;6.97;86.80;96711.35;226448;1272;22570;-75
2024/01/04 04:51:48;;;;;;;2.20;0.40;;;;;;;6.97;86.33;96713.33;226235;1272;25443;-76
2024/01/04 04:56:50;;;;;;;0.30;0.30;;;;;;;6.91;86.51;96717.86;226318;1274;22559;-75
2024/01/04 05:01:52;;;;;;;1.20;0.30;;;;;;;6.86;86.80;96733.89;226264;1272;22704;-76
2024/01/04 05:06:54;;;;;;;0.40;0.30;;;;;;;6.78;86.96;96735.02;226434;1272;25522;-75
2024/01/04 05:11:57;;;;;;;0.80;0.70;;;;;;;6.68;86.85;96735.56;226400;1273;22540;-74
2024/01/04 05:16:59;;;;;;;1.10;0.50;;;;;;;6.57;87.02;96731.92;226281;1260;22566;-75
2024/01/04 05:22:03;;;;;;;1.50;0.50;;;;;;;6.51;87.46;96741.44;226278;1274;22533;-76
2024/01/04 05:27:05;;;;;;;0.90;0.60;;;;;;;6.43;88.02;96752.86;226572;1270;24395;-76
2024/01/04 05:32:07;;;;;;;0.80;0.60;;;;;;;6.35;87.93;96753.61;226318;1274;22545;-76
2024/01/04 05:37:09;;;;;;;0.60;0.40;;;;;;;6.29;88.25;96761.98;226476;1274;22572;-75
2024/01/04 05:42:12;;;;;;;0.30;0.30;;;;;;;6.24;88.65;96761.87;226406;1272;22650;-77
2024/01/04 05:47:15;;;;;;;2.90;0.50;;;;;;;6.21;88.88;96756.35;226555;1272;22541;-76
2024/01/04 05:52:17;;;;;;;0.70;0.60;;;;;;;6.18;89.14;96768.06;226195;1274;22552;-75
2024/01/04 05:57:19;;;;;;;1.00;0.40;;;;;;;6.14;89.33;96767.70;226416;1262;22578;-74
2024/01/04 06:02:22;;;;;;;0.70;0.50;;;;;;;6.12;89.68;96772.71;226521;1272;22592;-77
2024/01/04 06:07:24;;;;;;;1.20;0.60;;;;;;;6.12;89.50;96768.67;226551;1274;25421;-75
2024/01/04 06:12:30;;;;;;;1.20;0.70;;;;;;;6.09;89.97;96769.78;226446;1251;22540;-75
2024/01/04 06:17:32;;;;;;;0.90;0.70;;;;;;;6.09;89.73;96774.05;226470;1272;22566;-76
2024/01/04 06:22:36;;;;;;;2.20;1.30;;;;;;;6.09;90.02;96774.25;226310;1274;22606;-76
2024/01/04 06:27:38;;;;;;;3.90;2.40;;;;;;;6.07;89.93;96773.20;226583;1270;22540;-75
2024/01/04 06:32:40;;;;;;;2.80;1.80;;;;;;;6.08;90.00;96782.67;226442;1272;24264;-76
2024/01/04 06:37:43;;;;;;;2.70;1.80;;;;;;;6.10;90.28;96783.20;226415;1274;22528;-76
2024/01/04 06:42:54;;;;;;;3.50;2.30;;;;;;;6.12;90.02;96781.80;226376;1274;22543;-76
2024/01/04 06:47:57;;;;;;;3.90;2.20;;;;;;;6.14;90.06;96784.29;226545;1267;23261;-75
2024/01/04 06:53:00;;;;;;;5.00;1.90;;;;;;;6.17;90.23;96786.30;226401;1267;22584;-76
2024/01/04 06:58:04;;;;;;;8.10;5.80;;;;;;;6.21;90.81;96777.65;226085;1251;23037;-74
2024/01/04 07:03:06;;;;;;;13.10;1.70;;;;;;;6.27;90.68;96783.85;225643;1260;22524;-76
2024/01/04 07:08:08;;;;;;;5.00;1.60;;;;;;;6.32;90.52;96785.20;225979;1269;22664;-72
2024/01/04 07:13:10;;;;;;;1.90;0.90;;;;;;;6.37;90.41;96785.80;225917;1257;24302;-73
2024/01/04 07:18:13;;;;;;;6.30;1.00;;;;;;;6.42;89.99;96786.39;226047;1251;22843;-74
2024/01/04 07:23:17;;;;;;;3.80;1.40;;;;;;;6.46;90.38;96779.11;225917;1256;22603;-74
2024/01/04 07:28:19;;;;;;;10.00;2.10;;;;;;;6.54;90.58;96785.77;226142;1270;22571;-75
2024/01/04 07:33:23;;;;;;;6.60;4.00;;;;;;;6.61;90.18;96787.05;226049;1265;22552;-75
2024/01/04 07:38:25;;;;;;;7.30;2.00;;;;;;;6.69;89.82;96789.41;225674;1256;25275;-76
2024/01/04 07:43:28;;;;;;;5.00;1.90;;;;;;;6.74;89.59;96796.52;225940;1252;22551;-77
2024/01/04 07:48:30;;;;;;;4.70;1.40;;;;;;;6.81;89.78;96801.14;225835;1251;22571;-76
2024/01/04 07:53:32;;;;;;;7.00;2.00;;;;;;;6.85;89.44;96803.59;225684;1259;22566;-76
2024/01/04 07:58:35;;;;;;;4.20;1.60;;;;;;;6.86;89.12;96809.60;225767;1263;22562;-74
2024/01/04 08:03:37;;;;;;;2.70;1.40;;;;;;;6.87;89.24;96814.97;225585;1256;22591;-78
2024/01/04 08:08:40;;;;;;;2.50;1.10;;;;;;;6.88;88.92;96822.84;225964;1253;22552;-77
2024/01/04 08:13:42;;;;;;;4.40;1.30;;;;;;;6.87;88.67;96822.96;225963;1255;22585;-76
2024/01/04 08:18:45;;;;;;;2.60;1.10;;;;;;;6.87;88.38;96816.90;225816;1263;22542;-74
2024/01/04 08:23:50;;;;;;;2.00;1.10;;;;;;;6.82;88.08;96814.20;225951;1255;26296;-75
2024/01/04 08:28:52;;;;;;;2.10;1.20;;;;;;;6.76;88.39;96811.54;226039;1264;22830;-77
2024/01/04 08:33:55;;;;;;;4.60;1.70;;;;;;;6.75;88.36;96818.48;226105;1251;22564;-74
2024/01/04 08:38:57;;;;;;;2.80;1.60;;;;;;;6.83;88.29;96817.74;226313;1267;22533;-78
2024/01/04 08:43:59;;;;;;;2.50;1.50;;;;;;;6.93;88.18;96816.51;225687;1256;25344;-75
2024/01/04 08:49:01;;;;;;;1.80;1.30;;;;;;;7.10;88.37;96817.06;225837;1259;25354;-73
2024/01/04 08:54:07;;;;;;;3.60;1.50;;;;;;;7.32;87.82;96820.39;225901;1263;25984;-76
2024/01/04 08:59:09;;;;;;;1.90;1.20;;;;;;;7.55;87.59;96828.48;225822;1270;25252;-72
2024/01/04 09:04:11;;;;;;;2.40;1.40;;;;;;;7.69;87.21;96837.39;225994;1266;22542;-74
2024/01/04 09:09:13;;;;;;;2.70;1.20;;;;;;;7.79;86.95;96844.77;225891;1274;24204;-74
2024/01/04 09:14:16;;;;;;;4.20;2.00;;;;;;;7.73;87.08;96855.06;226018;1260;24471;-75
2024/01/04 09:19:20;;;;;;;3.80;2.40;;;;;;;7.65;87.15;96862.06;226094;1272;22586;-74
2024/01/04 09:24:23;;;;;;;3.10;1.80;;;;;;;7.56;86.87;96865.05;225966;1256;22598;-73
2024/01/04 09:29:26;;;;;;;3.90;2.00;;;;;;;7.50;87.22;96871.52;226172;1259;26168;-74
2024/01/04 09:34:28;;;;;;;4.00;1.50;;;;;;;7.48;87.33;96867.10;225952;1270;22537;-74
2024/01/04 09:39:30;;;;;;;4.00;1.90;;;;;;;7.44;87.49;96864.94;226092;1270;22918;-74
2024/01/04 09:44:33;;;;;;;3.70;1.70;;;;;;;7.43;87.69;96870.77;225684;1260;22532;-75
2024/01/04 09:49:38;;;;;;;2.80;1.60;;;;;;;7.41;87.14;96872.63;226023;1273;22540;-75
2024/01/04 09:54:44;;;;;;;1.80;1.30;;;;;;;7.44;87.58;96874.60;226001;1269;23260;-74
2024/01/04 09:59:46;;;;;;;3.20;1.30;;;;;;;7.49;87.72;96877.89;225782;1260;25462;-74
2024/01/04 10:04:51;;;;;;;2.50;1.50;;;;;;;7.54;87.54;96874.62;225749;1254;22535;-74
2024/01/04 10:10:04;;;;;;;2.60;1.70;;;;;;;7.57;87.44;96875.43;226936;1270;22560;-75
2024/01/04 10:15:08;;;;;;;4.70;2.30;;;;;;;7.59;87.55;96875.37;225597;1257;22788;-75
2024/01/04 10:20:10;;;;;;;5.50;3.10;;;;;;;7.53;87.34;96871.14;225752;1269;22547;-74
2024/01/04 10:25:18;;;;;;;5.20;3.50;;;;;;;7.44;87.78;96881.95;225642;1268;22549;-76
2024/01/04 10:30:20;;;;;;;4.80;2.50;;;;;;;7.41;87.70;96891.13;225719;1272;24681;-74
2024/01/04 10:35:26;;;;;;;3.30;2.20;;;;;;;7.41;87.82;96897.53;225889;1270;22536;-75
2024/01/04 10:40:29;;;;;;;3.90;1.80;;;;;;;7.39;87.63;96892.85;225902;1267;22547;-78
2024/01/04 10:45:34;;;;;;;3.30;1.80;;;;;;;7.40;87.74;96887.41;225703;1267;22715;-75
2024/01/04 10:50:38;;;;;;;1.70;1.40;;;;;;;7.45;87.78;96884.98;225744;1274;22544;-76
2024/01/04 10:55:42;;;;;;;1.20;0.90;;;;;;;7.50;87.79;96879.78;225911;1260;22525;-77
2024/01/04 11:00:45;;;;;;;2.00;1.20;;;;;;;7.56;87.74;96873.30;226331;1272;22540;-75
2024/01/04 11:05:47;;;;;;;10.20;6.10;;;;;;;7.63;87.60;96872.27;225751;1260;22696;-74
2024/01/04 11:10:51;;;;;;;1.40;1.10;;;;;;;7.68;87.58;96881.08;225947;1272;22551;-75
2024/01/04 11:15:55;;;;;;;3.80;1.40;;;;;;;7.67;87.31;96878.79;225875;1273;22566;-75
2024/01/04 11:21:17;;;;;;;4.30;2.80;;;;;;;7.66;87.58;96873.92;226323;1275;22592;-75
2024/01/04 11:26:19;;;;;;;2.80;1.70;;;;;;;7.68;87.48;96881.56;225948;1272;141291;-75
2024/01/04 11:31:25;;;;;;;2.50;1.50;;;;;;;7.67;87.48;96884.69;226177;1275;24752;-77
2024/01/04 11:36:28;;;;;;;1.50;1.00;;;;;;;7.69;87.76;96879.90;225966;1267;22543;-76
2024/01/04 11:41:34;;;;;;;1.50;1.00;;;;;;;7.75;87.71;96885.49;226022;1272;22544;-76
2024/01/04 11:46:41;;;;;;;2.80;2.00;;;;;;;7.80;87.62;96927.23;226211;1272;22545;-75
2024/01/04 11:51:47;;;;;;;1.90;1.10;;;;;;;7.67;87.29;96947.55;226016;1259;23515;-75
2024/01/04 11:56:50;;;;;;;3.00;1.60;;;;;;;7.10;86.20;96944.08;226130;1266;22575;-76
2024/01/04 12:01:53;;;;;;;2.60;1.40;;;;;;;6.62;87.09;96936.77;225869;1266;24688;-76
2024/01/04 12:07:00;;;;;;;3.00;1.50;;;;;;;6.43;87.83;96940.50;225620;1257;22536;-76
2024/01/04 12:12:04;;;;;;;3.00;1.40;;;;;;;6.33;88.27;96950.19;225624;1270;23462;-77
2024/01/04 12:17:06;;;;;;;2.30;1.40;;;;;;;6.26;88.69;96941.52;225848;1266;22539;-77
2024/01/04 12:22:08;;;;;;;2.60;1.30;;;;;;;6.20;89.10;96949.48;225546;1269;22588;-78
2024/01/04 12:27:11;;;;;;;2.30;1.30;;;;;;;6.15;89.58;96949.36;225683;1276;22543;-78
2024/01/04 12:32:14;;;;;;;7.10;4.10;;;;;;;6.11;89.27;96955.46;225839;1274;22565;-77
2024/01/04 12:37:18;;;;;;;2.20;1.60;;;;;;;6.12;89.90;96957.96;225623;1259;22590;-77
2024/01/04 12:42:24;;;;;;;2.20;1.50;;;;;;;6.14;89.95;96953.58;225076;1275;22543;-77
2024/01/04 12:47:27;;;;;;;3.60;2.60;;;;;;;6.20;90.16;96959.66;225041;1272;22695;-79
2024/01/04 12:52:30;;;;;;;5.10;2.90;;;;;;;6.28;90.17;96961.11;225155;1259;22542;-77
2024/01/04 12:57:34;;;;;;;4.50;3.40;;;;;;;6.34;90.42;96956.55;225808;1275;24311;-78
2024/01/04 13:02:37;;;;;;;3.40;2.40;;;;;;;6.36;90.45;96950.86;225951;1275;22538;-78
2024/01/04 13:07:39;;;;;;;9.30;7.30;;;;;;;6.35;90.40;96956.76;225915;1265;22543;-77
2024/01/04 13:12:41;;;;;;;5.40;4.00;;;;;;;6.34;90.71;96960.88;225807;1260;22546;-77
2024/01/04 13:17:43;;;;;;;6.50;4.50;;;;;;;6.35;90.81;96957.61;225843;1275;22547;-76
2024/01/04 13:22:47;;;;;;;7.20;5.50;;;;;;;6.40;90.74;96954.87;225974;1274;22536;-77
2024/01/04 13:27:50;;;;;;;5.70;4.50;;;;;;;6.46;91.43;96954.86;225805;1272;22764;-76
2024/01/04 13:32:52;;;;;;;7.90;5.20;;;;;;;6.53;91.23;96953.59;225729;1274;25452;-75
2024/01/04 13:37:54;;;;;;;9.30;6.10;;;;;;;6.55;91.39;96958.25;225951;1272;22558;-76
2024/01/04 13:42:56;;;;;;;7.90;5.70;;;;;;;6.56;91.39;96966.68;225932;1275;22582;-74
2024/01/04 13:48:00;;;;;;;7.60;5.30;;;;;;;6.58;91.32;96964.22;225874;1262;22567;-75
2024/01/04 13:53:06;;;;;;;7.30;4.50;;;;;;;6.62;91.19;96975.63;226046;1275;22635;-76
2024/01/04 13:58:08;;;;;;;9.00;5.00;;;;;;;6.64;91.59;96973.25;225989;1271;22667;-75
2024/01/04 14:03:10;;;;;;;7.10;4.90;;;;;;;6.64;91.37;96974.83;225814;1267;22576;-75
2024/01/04 14:08:14;;;;;;;7.80;5.70;;;;;;;6.65;91.28;96979.95;225813;1268;22551;-77
2024/01/04 14:13:16;;;;;;;7.20;5.10;;;;;;;6.66;91.34;96975.39;225754;1274;22588;-75
2024/01/04 14:18:18;;;;;;;6.00;4.00;;;;;;;6.68;91.38;96977.74;226025;1256;22547;-77
2024/01/04 14:23:20;;;;;;;4.90;3.10;;;;;;;6.72;91.26;96985.56;225815;1265;22568;-76
2024/01/04 14:28:22;;;;;;;4.30;3.00;;;;;;;6.78;91.34;96993.38;225981;1271;22830;-77
2024/01/04 14:33:24;;;;;;;6.30;3.20;;;;;;;6.83;91.44;96999.10;225885;1272;22578;-81
2024/01/04 14:38:37;;;;;;;5.30;2.70;;;;;;;6.86;91.24;96999.16;226100;1267;22556;-77
2024/01/04 14:43:40;;;;;;;4.00;2.60;;;;;;;6.91;90.70;96999.55;226053;1267;22696;-78
2024/01/04 14:48:44;;;;;;;3.30;1.90;;;;;;;6.92;90.67;96997.23;226071;1251;22547;-75
2024/01/04 14:53:47;;;;;;;3.90;3.10;;;;;;;6.89;90.18;97009.36;226150;1269;22611;-74
2024/01/04 14:58:49;;;;;;;7.40;4.00;;;;;;;6.85;90.21;97013.09;225926;1270;22545;-77
2024/01/04 15:03:52;;;;;;;3.40;2.00;;;;;;;6.82;89.66;97015.77;225917;1275;22728;-77
2024/01/04 15:08:55;;;;;;;2.70;2.00;;;;;;;6.77;89.70;97011.72;225876;1254;22591;-75
2024/01/04 15:14:00;;;;;;;2.90;2.20;;;;;;;6.72;89.61;97006.77;226146;1275;22537;-77
2024/01/04 15:19:03;;;;;;;2.20;1.80;;;;;;;6.68;89.80;97012.59;226211;1275;24222;-76
2024/01/04 15:24:06;;;;;;;3.80;2.30;;;;;;;6.63;89.39;97028.35;226387;1275;22540;-75
2024/01/04 15:29:08;;;;;;;2.90;2.10;;;;;;;6.58;89.63;97040.87;226262;1275;23501;-74
2024/01/04 15:34:10;;;;;;;3.40;2.10;;;;;;;6.60;89.61;97052.17;226421;1274;22547;-77
2024/01/04 15:39:14;;;;;;;2.40;1.70;;;;;;;6.62;88.90;97059.80;226406;1270;22570;-77
2024/01/04 15:44:18;;;;;;;2.30;1.10;;;;;;;6.59;88.70;97066.26;226416;1275;24212;-76
2024/01/04 15:49:21;;;;;;;1.70;0.90;;;;;;;6.56;88.10;97065.50;226272;1275;24257;-76
2024/01/04 15:54:24;;;;;;;1.10;0.80;;;;;;;6.51;87.98;97068.63;226419;1268;25100;-75
2024/01/04 15:59:26;;;;;;;1.80;1.20;;;;;;;6.45;87.80;97072.58;226302;1275;22541;-79
2024/01/04 16:04:29;;;;;;;1.70;1.30;;;;;;;6.37;87.72;97086.23;226264;1275;27134;-75
2024/01/04 16:09:31;;;;;;;5.70;3.20;;;;;;;6.29;87.72;97093.13;226302;1275;22557;-77
2024/01/04 16:14:33;;;;;;;5.20;2.80;;;;;;;6.25;88.60;97099.66;226085;1275;22565;-76
2024/01/04 16:19:37;;;;;;;4.70;2.90;;;;;;;6.22;88.33;97100.40;226213;1275;22561;-77
2024/01/04 16:24:39;;;;;;;2.20;1.50;;;;;;;6.20;88.14;97101.20;226324;1275;22941;-78
2024/01/04 16:29:41;;;;;;;3.10;1.20;;;;;;;6.18;88.49;97080.48;226340;1275;22571;-75
2024/01/04 16:34:43;;;;;;;2.50;1.10;;;;;;;6.15;88.89;97083.92;226543;1275;22550;-77
2024/01/04 16:39:46;;;;;;;3.60;2.10;;;;;;;6.11;88.90;97099.50;226583;1273;22542;-77
2024/01/04 16:44:48;;;;;;;3.50;2.20;;;;;;;6.07;89.16;97101.07;226336;1275;22553;-76
2024/01/04 16:49:50;;;;;;;3.60;2.10;;;;;;;6.01;89.07;97094.34;226144;1261;22551;-76
2024/01/04 16:54:53;;;;;;;3.60;1.80;;;;;;;5.97;88.60;97092.02;226306;1270;22605;-77
2024/01/04 16:59:55;;;;;;;2.40;1.20;;;;;;;5.92;88.84;97102.80;226489;1272;22518;-75
2024/01/04 17:04:58;;;;;;;2.10;1.20;;;;;;;5.91;89.09;97117.04;226322;1275;22528;-77
2024/01/04 17:10:00;;;;;;;2.20;1.10;;;;;;;5.92;88.60;97122.92;226286;1275;22548;-75
2024/01/04 17:15:06;;;;;;;1.40;1.20;;;;;;;5.95;89.00;97128.88;226126;1275;22543;-76
2024/01/04 17:20:10;;;;;;;1.90;1.10;;;;;;;5.99;88.96;97145.70;226330;1275;22600;-76
2024/01/04 17:25:13;;;;;;;1.80;1.10;;;;;;;6.02;88.40;97162.09;226347;1274;22561;-75
2024/01/04 17:30:21;;;;;;;2.30;1.70;;;;;;;6.07;88.93;97195.58;226286;1275;22559;-76
2024/01/04 17:35:23;;;;;;;2.80;1.40;;;;;;;5.93;88.78;97204.88;226330;1275;22552;-76
2024/01/04 17:40:26;;;;;;;4.10;2.40;;;;;;;5.63;88.22;97224.76;226230;1275;27261;-76
2024/01/04 17:45:28;;;;;;;1.40;1.20;;;;;;;5.38;88.73;97235.79;226214;1275;22550;-77
2024/01/04 17:50:32;;;;;;;2.40;1.80;;;;;;;5.18;89.03;97244.29;226358;1275;22579;-76
2024/01/04 17:55:34;;;;;;;2.40;2.00;;;;;;;5.01;89.40;97265.71;226320;1275;25348;-76
2024/01/04 18:00:36;;;;;;;2.50;1.60;;;;;;;4.85;89.49;97274.48;226324;1275;22622;-76
2024/01/04 18:05:40;;;;;;;2.80;1.60;;;;;;;4.76;90.05;97291.63;226266;1275;22551;-76
2024/01/04 18:10:43;;;;;;;3.00;1.80;;;;;;;4.66;90.35;97302.96;226150;1271;22548;-75
2024/01/04 18:15:45;;;;;;;2.90;2.20;;;;;;;4.55;90.23;97306.73;226338;1275;22557;-77
2024/01/04 18:20:48;;;;;;;3.40;2.30;;;;;;;4.48;90.63;97319.08;226284;1275;22611;-77
2024/01/04 18:25:51;;;;;;;5.00;2.30;;;;;;;4.41;90.44;97322.95;226301;1275;24521;-75
2024/01/04 18:30:53;;;;;;;2.60;2.10;;;;;;;4.33;90.48;97330.81;226664;1264;22966;-75
2024/01/04 18:35:56;;;;;;;2.00;1.60;;;;;;;4.25;90.47;97338.83;226296;1275;22563;-76
2024/01/04 18:40:58;;;;;;;2.00;1.40;;;;;;;4.14;90.51;97357.84;226138;1275;22529;-76
2024/01/04 18:46:05;;;;;;;1.30;1.20;;;;;;;4.05;90.38;97369.18;226297;1275;22546;-75
2024/01/04 18:51:08;;;;;;;1.90;1.00;;;;;;;3.98;90.26;97379.63;225977;1275;22570;-76
2024/01/04 18:56:11;;;;;;;1.20;0.90;;;;;;;3.91;90.61;97380.45;226251;1275;22623;-78
2024/01/04 19:01:14;;;;;;;3.10;1.20;;;;;;;3.87;90.65;97386.30;226121;1262;24915;-75
2024/01/04 19:06:16;;;;;;;2.20;1.20;;;;;;;3.84;90.58;97400.23;226384;1273;24762;-76
2024/01/04 19:11:18;;;;;;;1.60;1.20;;;;;;;3.82;90.38;97425.95;226237;1275;22709;-75
2024/01/04 19:16:21;;;;;;;1.20;1.00;;;;;;;3.81;90.63;97444.30;226388;1267;22559;-77
2024/01/04 19:21:24;;;;;;;2.80;1.70;;;;;;;3.80;90.55;97440.81;226349;1275;23050;-76
2024/01/04 19:26:28;;;;;;;3.90;1.60;;;;;;;3.76;90.46;97442.48;226467;1274;22543;-76
2024/01/04 19:31:33;;;;;;;2.60;1.90;;;;;;;3.72;90.28;97455.88;226182;1275;22574;-76
2024/01/04 19:36:37;;;;;;;3.00;1.70;;;;;;;3.69;90.29;97466.52;226702;1270;22919;-75
2024/01/04 19:41:42;;;;;;;3.40;1.80;;;;;;;3.67;90.13;97487.75;226563;1275;22663;-77
2024/01/04 19:46:45;;;;;;;3.00;1.80;;;;;;;3.66;90.22;97499.75;226431;1275;22540;-77
2024/01/04 19:51:48;;;;;;;2.90;1.80;;;;;;;3.62;89.80;97501.92;226359;1275;22538;-77
2024/01/04 19:56:50;;;;;;;2.60;1.80;;;;;;;3.56;89.47;97514.51;226412;1256;22594;-75
2024/01/04 20:01:53;;;;;;;3.30;2.00;;;;;;;3.47;89.03;97525.24;226345;1275;22590;-75
2024/01/04 20:06:58;;;;;;;4.10;2.10;;;;;;;3.37;88.63;97525.51;226531;1275;22692;-76
2024/01/04 20:12:00;;;;;;;2.90;2.00;;;;;;;3.26;88.48;97530.45;227360;1275;25548;-75
2024/01/04 20:17:02;;;;;;;3.10;1.80;;;;;;;3.16;88.16;97543.35;226421;1275;22547;-75
2024/01/04 20:22:05;;;;;;;2.60;2.10;;;;;;;3.05;87.66;97547.92;226318;1275;22565;-76
2024/01/04 20:27:07;;;;;;;4.80;2.40;;;;;;;2.93;87.76;97560.21;226319;1275;22543;-75
2024/01/04 20:32:10;;;;;;;4.30;2.70;;;;;;;2.83;87.87;97568.30;226257;1275;23422;-76
2024/01/04 20:37:13;;;;;;;2.80;2.30;;;;;;;2.73;87.95;97572.30;226474;1273;22561;-76
2024/01/04 20:42:19;;;;;;;4.30;2.60;;;;;;;2.66;88.09;97588.73;226400;1275;22564;-76
2024/01/04 20:47:29;;;;;;;4.60;2.40;;;;;;;2.62;88.09;97609.56;226332;1272;22546;-77
2024/01/04 20:52:33;;;;;;;3.50;2.50;;;;;;;2.59;88.08;97622.23;226330;1273;22706;-75
2024/01/04 20:57:36;;;;;;;3.00;2.10;;;;;;;2.55;87.89;97642.84;226426;1275;22531;-76
2024/01/04 21:02:38;;;;;;;2.40;1.80;;;;;;;2.52;87.71;97651.50;226364;1275;22548;-77
2024/01/04 21:07:41;;;;;;;3.20;1.70;;;;;;;2.49;87.29;97663.27;226149;1262;22568;-76
2024/01/04 21:12:43;;;;;;;2.20;1.00;;;;;;;2.45;86.64;97671.35;226352;1275;22628;-76
2024/01/04 21:17:46;;;;;;;2.10;1.10;;;;;;;2.38;85.98;97683.33;226387;1275;25372;-76
2024/01/04 21:22:48;;;;;;;2.00;1.00;;;;;;;2.33;85.74;97694.75;226302;1275;22550;-75
2024/01/04 21:27:50;;;;;;;1.50;0.80;;;;;;;2.28;85.33;97700.60;226333;1275;22565;-76
2024/01/04 21:32:52;;;;;;;0.90;0.80;;;;;;;2.26;85.36;97709.87;226437;1274;22615;-76
2024/01/04 21:37:59;;;;;;;1.10;0.80;;;;;;;2.24;85.23;97719.28;226285;1275;25419;-77
2024/01/04 21:43:04;;;;;;;2.10;1.20;;;;;;;2.23;85.23;97727.91;226207;1275;22578;-76
2024/01/04 21:48:06;;;;;;;1.90;1.10;;;;;;;2.23;85.23;97735.02;226351;1275;25484;-77
2024/01/04 21:53:09;;;;;;;2.60;1.50;;;;;;;2.25;85.31;97741.46;226145;1275;22551;-76
2024/01/04 21:58:16;;;;;;;3.00;1.90;;;;;;;2.26;85.48;97757.48;226138;1275;22607;-77
2024/01/04 22:03:18;;;;;;;3.30;1.80;;;;;;;2.27;85.36;97767.77;226526;1275;22563;-76
2024/01/04 22:08:23;;;;;;;2.50;1.70;;;;;;;2.29;85.12;97776.46;226462;1273;22547;-76
2024/01/04 22:13:25;;;;;;;2.40;1.50;;;;;;;2.30;85.14;97780.02;226316;1274;22631;-76
2024/01/04 22:18:27;;;;;;;1.90;1.30;;;;;;;2.31;84.94;97791.55;226388;1275;22582;-76
2024/01/04 22:23:30;;;;;;;3.10;1.30;;;;;;;2.29;84.72;97799.04;226582;1269;22732;-76
2024/01/04 22:28:32;;;;;;;3.50;1.50;;;;;;;2.28;84.76;97812.09;226453;1272;25278;-76
2024/01/04 22:33:34;;;;;;;2.90;1.90;;;;;;;2.27;84.62;97813.10;226344;1275;23050;-77
2024/01/04 22:38:36;;;;;;;2.20;1.20;;;;;;;2.25;84.71;97822.18;226212;1256;25481;-75
2024/01/04 22:43:38;;;;;;;1.80;1.40;;;;;;;2.16;84.62;97835.48;226253;1275;25255;-75
2024/01/04 22:48:41;;;;;;;1.30;1.20;;;;;;;1.99;84.55;97845.39;226422;1272;22537;-76
2024/01/04 22:53:43;;;;;;;2.50;1.60;;;;;;;1.83;84.73;97837.15;226259;1275;22638;-75
2024/01/04 22:58:45;;;;;;;2.60;1.50;;;;;;;1.68;84.94;97842.84;226459;1275;22639;-77
2024/01/04 23:03:47;;;;;;;2.20;1.40;;;;;;;1.55;85.06;97852.11;226386;1274;24287;-76
2024/01/04 23:08:50;;;;;;;2.70;1.50;;;;;;;1.48;85.57;97867.76;226315;1275;22551;-77
2024/01/04 23:13:52;;;;;;;2.60;1.50;;;;;;;1.46;85.69;97881.41;226374;1275;22582;-77
2024/01/04 23:18:54;;;;;;;1.40;1.30;;;;;;;1.46;85.95;97891.56;226339;1274;22558;-76
2024/01/04 23:23:57;;;;;;;3.30;1.50;;;;;;;1.49;85.83;97905.30;226425;1274;22558;-77
2024/01/04 23:28:59;;;;;;;1.40;1.30;;;;;;;1.50;85.77;97905.76;226258;1275;164841;-77
2024/01/04 23:34:01;;;;;;;4.70;1.70;;;;;;;1.51;85.82;97913.64;226394;1273;25303;-76
2024/01/04 23:39:04;;;;;;;2.70;1.30;;;;;;;1.54;85.88;97915.09;226242;1275;22543;-77
2024/01/04 23:44:07;;;;;;;1.50;1.30;;;;;;;1.55;85.75;97922.91;226352;1272;25341;-75
2024/01/04 23:49:10;;;;;;;2.10;1.30;;;;;;;1.57;85.76;97928.08;226362;1275;22666;-76